createdAt,value
2019-05-13T00:00:10.388Z,9.70
2019-05-13T00:02:40.022Z,9.70
2019-05-13T00:05:10.055Z,9.60
2019-05-13T00:07:39.639Z,9.60
2019-05-13T00:10:09.677Z,9.60
2019-05-13T00:12:39.272Z,9.70
2019-05-13T00:15:10.213Z,9.70
2019-05-13T00:17:39.929Z,9.80
2019-05-13T00:20:09.901Z,9.80
2019-05-13T00:22:39.732Z,9.80
2019-05-13T00:25:09.602Z,9.80
2019-05-13T00:27:39.272Z,9.80
2019-05-13T00:30:09.623Z,9.80
2019-05-13T00:32:39.286Z,9.80
2019-05-13T00:35:09.277Z,9.80
2019-05-13T00:37:38.930Z,9.80
2019-05-13T00:40:08.951Z,9.80
2019-05-13T00:42:38.586Z,9.70
2019-05-13T00:45:08.582Z,9.70
2019-05-13T00:47:38.217Z,9.70
2019-05-13T00:50:07.947Z,9.80
2019-05-13T00:52:37.539Z,9.90
2019-05-13T00:55:09.961Z,9.90
2019-05-13T00:57:39.164Z,9.90
2019-05-13T01:00:09.812Z,10.00
2019-05-13T01:02:39.489Z,9.90
2019-05-13T01:05:09.402Z,9.90
2019-05-13T01:07:38.994Z,9.90
2019-05-13T01:10:09.035Z,10.00
2019-05-13T01:12:38.740Z,10.00
2019-05-13T01:15:08.778Z,9.90
2019-05-13T01:17:38.437Z,9.90
2019-05-13T01:20:09.876Z,9.80
2019-05-13T01:22:39.492Z,9.70
2019-05-13T01:25:09.392Z,9.60
2019-05-13T01:27:38.976Z,9.60
2019-05-13T01:30:09.814Z,9.60
2019-05-13T01:32:39.410Z,9.60
2019-05-13T01:35:09.607Z,9.70
2019-05-13T01:37:42.762Z,9.60
2019-05-13T01:40:13.539Z,9.60
2019-05-13T01:42:44.491Z,9.50
2019-05-13T01:45:15.205Z,9.50
2019-05-13T01:47:44.829Z,9.60
2019-05-13T01:50:14.854Z,9.60
2019-05-13T01:52:44.797Z,9.80
2019-05-13T01:55:14.855Z,9.90
2019-05-13T01:57:44.710Z,10.10
2019-05-13T02:00:15.022Z,10.20
2019-05-13T02:02:44.806Z,10.30
2019-05-13T02:05:14.810Z,10.30
2019-05-13T02:07:56.980Z,10.40
2019-05-13T02:10:18.248Z,10.40
2019-05-13T02:12:48.208Z,10.50
2019-05-13T02:15:18.050Z,10.50
2019-05-13T02:17:47.679Z,10.60
2019-05-13T02:20:17.601Z,10.50
2019-05-13T02:22:47.236Z,10.50
2019-05-13T02:25:16.823Z,10.30
2019-05-13T02:27:46.530Z,10.20
2019-05-13T02:30:16.739Z,10.10
2019-05-13T02:32:46.480Z,10.20
2019-05-13T02:35:16.116Z,10.10
2019-05-13T02:37:45.780Z,10.10
2019-05-13T02:40:15.810Z,10.00
2019-05-13T02:42:45.489Z,10.00
2019-05-13T02:45:15.186Z,10.00
2019-05-13T02:47:44.815Z,9.90
2019-05-13T02:50:14.753Z,9.90
2019-05-13T02:52:44.706Z,9.80
2019-05-13T02:55:14.672Z,9.80
2019-05-13T02:57:44.306Z,9.80
2019-05-13T03:00:14.444Z,9.80
2019-05-13T03:02:44.280Z,9.90
2019-05-13T03:05:14.738Z,9.80
2019-05-13T03:07:44.363Z,9.70
2019-05-13T03:10:14.851Z,9.70
2019-05-13T03:12:44.481Z,9.60
2019-05-13T03:15:14.782Z,9.60
2019-05-13T03:17:53.322Z,9.60
2019-05-13T03:20:23.375Z,9.50
2019-05-13T03:22:53.163Z,9.50
2019-05-13T03:25:23.182Z,9.50
2019-05-13T03:27:53.946Z,9.50
2019-05-13T03:30:26.038Z,9.50
2019-05-13T03:33:02.255Z,9.50
2019-05-13T03:35:28.029Z,9.60
2019-05-13T03:37:58.162Z,9.50
2019-05-13T03:40:29.165Z,9.50
2019-05-13T03:43:02.766Z,9.60
2019-05-13T03:45:34.254Z,9.60
2019-05-13T03:48:04.470Z,9.60
2019-05-13T03:50:34.957Z,9.40
2019-05-13T03:53:04.855Z,9.30
2019-05-13T03:55:34.878Z,9.30
2019-05-13T03:58:04.732Z,9.30
2019-05-13T04:00:34.910Z,9.40
2019-05-13T04:03:04.814Z,9.50
2019-05-13T04:05:34.667Z,9.60
2019-05-13T04:08:04.490Z,9.60
2019-05-13T04:10:34.217Z,9.60
2019-05-13T04:13:04.266Z,9.60
2019-05-13T04:15:34.187Z,9.60
2019-05-13T04:18:03.815Z,9.70
2019-05-13T04:20:33.780Z,9.60
2019-05-13T04:23:03.559Z,9.60
2019-05-13T04:25:33.180Z,9.60
2019-05-13T04:28:03.562Z,9.60
2019-05-13T04:30:33.545Z,9.60
2019-05-13T04:33:03.564Z,9.50
2019-05-13T04:35:33.665Z,9.60
2019-05-13T04:38:05.260Z,9.70
2019-05-13T04:40:34.717Z,9.70
2019-05-13T04:43:04.552Z,9.50
2019-05-13T04:45:34.210Z,9.50
2019-05-13T04:48:03.974Z,9.40
2019-05-13T04:50:33.560Z,9.60
2019-05-13T04:53:03.672Z,9.70
2019-05-13T04:55:33.568Z,9.80
2019-05-13T04:58:03.901Z,9.90
2019-05-13T05:01:02.354Z,9.80
2019-05-13T05:03:53.168Z,9.80
2019-05-13T05:06:44.943Z,9.80
2019-05-13T05:10:22.054Z,9.90
2019-05-13T05:12:57.745Z,9.80
2019-05-13T05:15:54.133Z,9.90
2019-05-13T05:19:02.272Z,10.00
2019-05-13T05:21:55.451Z,9.90
2019-05-13T05:24:44.515Z,10.00
2019-05-13T05:27:47.418Z,10.00
2019-05-13T05:31:11.511Z,10.10
2019-05-13T05:34:15.462Z,10.10
2019-05-13T05:37:04.486Z,10.00
2019-05-13T05:39:34.267Z,10.10
2019-05-13T05:42:07.503Z,10.10
2019-05-13T05:44:42.198Z,10.10
2019-05-13T05:47:14.081Z,10.20
2019-05-13T05:49:45.785Z,10.30
2019-05-13T05:52:17.626Z,10.40
2019-05-13T05:54:51.726Z,10.40
2019-05-13T05:57:23.697Z,10.50
2019-05-13T05:59:56.259Z,10.50
2019-05-13T06:02:28.377Z,10.80
2019-05-13T06:05:02.133Z,10.80
2019-05-13T06:07:32.367Z,10.80
2019-05-13T06:10:02.434Z,10.80
2019-05-13T06:12:33.539Z,10.80
2019-05-13T06:15:03.311Z,10.90
2019-05-13T06:17:33.212Z,11.00
2019-05-13T06:20:04.462Z,11.00
2019-05-13T06:22:34.938Z,10.90
2019-05-13T06:25:09.094Z,10.90
2019-05-13T06:27:39.363Z,10.90
2019-05-13T06:30:12.339Z,10.90
2019-05-13T06:32:42.040Z,11.00
2019-05-13T06:35:12.662Z,11.10
2019-05-13T06:37:42.717Z,11.10
2019-05-13T06:40:12.989Z,11.20
2019-05-13T06:42:42.633Z,11.20
2019-05-13T06:45:12.726Z,11.10
2019-05-13T06:47:42.321Z,11.20
2019-05-13T06:50:12.170Z,11.20
2019-05-13T06:52:42.582Z,11.10
2019-05-13T06:55:12.640Z,11.10
2019-05-13T06:57:42.396Z,11.10
2019-05-13T07:00:12.405Z,11.20
2019-05-13T07:02:42.710Z,11.20
2019-05-13T07:05:12.915Z,11.10
2019-05-13T07:07:42.581Z,11.20
2019-05-13T07:10:12.875Z,11.30
2019-05-13T07:12:42.525Z,11.40
2019-05-13T07:15:12.831Z,11.40
2019-05-13T07:17:42.441Z,11.30
2019-05-13T07:20:12.371Z,11.30
2019-05-13T07:22:42.319Z,11.40
2019-05-13T07:25:12.248Z,11.40
2019-05-13T07:27:42.540Z,11.50
2019-05-13T07:30:12.628Z,11.60
2019-05-13T07:32:42.259Z,11.70
2019-05-13T07:35:14.335Z,11.70
2019-05-13T07:37:43.891Z,11.60
2019-05-13T07:40:13.992Z,11.60
2019-05-13T07:42:43.585Z,11.60
2019-05-13T07:45:13.453Z,11.60
2019-05-13T07:47:43.038Z,11.60
2019-05-13T07:50:12.967Z,11.70
2019-05-13T07:52:42.566Z,11.70
2019-05-13T07:55:13.849Z,11.80
2019-05-13T07:57:43.439Z,12.00
2019-05-13T08:00:13.380Z,12.00
2019-05-13T08:02:43.011Z,12.00
2019-05-13T08:05:13.929Z,12.00
2019-05-13T08:07:43.525Z,12.00
2019-05-13T08:10:13.571Z,12.00
2019-05-13T08:12:43.234Z,11.90
2019-05-13T08:15:16.037Z,12.00
2019-05-13T08:17:47.661Z,12.10
2019-05-13T08:20:17.596Z,12.10
2019-05-13T08:22:47.802Z,12.10
2019-05-13T08:25:17.521Z,12.10
2019-05-13T08:27:47.234Z,12.10
2019-05-13T08:30:18.369Z,12.00
2019-05-13T08:32:48.119Z,12.00
2019-05-13T08:35:17.818Z,11.90
2019-05-13T08:37:47.445Z,11.90
2019-05-13T08:40:20.355Z,11.80
2019-05-13T08:42:52.010Z,11.80
2019-05-13T08:45:22.362Z,11.80
2019-05-13T08:47:52.070Z,11.70
2019-05-13T08:50:22.164Z,11.60
2019-05-13T08:52:52.146Z,11.60
2019-05-13T08:55:21.823Z,11.50
2019-05-13T08:57:54.735Z,11.60
2019-05-13T09:00:52.549Z,11.60
2019-05-13T09:03:22.106Z,11.60
2019-05-13T09:05:52.706Z,11.40
2019-05-13T09:08:24.259Z,11.30
2019-05-13T09:10:56.715Z,11.40
2019-05-13T09:13:25.439Z,11.30
2019-05-13T09:15:55.165Z,11.40
2019-05-13T09:18:24.794Z,11.40
2019-05-13T09:20:54.458Z,11.40
2019-05-13T09:23:24.095Z,11.20
2019-05-13T09:25:53.853Z,11.00
2019-05-13T09:28:23.664Z,10.90
2019-05-13T09:30:53.505Z,10.80
2019-05-13T09:33:23.187Z,10.80
2019-05-13T09:35:53.748Z,10.80
2019-05-13T09:38:23.530Z,10.70
2019-05-13T09:40:53.444Z,10.80
2019-05-13T09:43:23.161Z,10.90
2019-05-13T09:45:52.903Z,10.80
2019-05-13T09:48:22.931Z,10.80
2019-05-13T09:50:52.579Z,10.80
2019-05-13T09:53:22.685Z,10.90
2019-05-13T09:55:52.592Z,11.00
2019-05-13T09:58:22.762Z,11.10
2019-05-13T10:00:53.258Z,11.20
2019-05-13T10:03:28.798Z,11.10
2019-05-13T10:05:54.359Z,11.10
2019-05-13T10:08:24.016Z,11.00
2019-05-13T10:10:53.732Z,10.90
2019-05-13T10:13:23.494Z,10.90
2019-05-13T10:15:53.148Z,11.00
2019-05-13T10:18:22.744Z,11.00
2019-05-13T10:21:02.069Z,11.10
2019-05-13T10:23:33.198Z,11.00
2019-05-13T10:26:07.775Z,11.10
2019-05-13T10:28:37.672Z,11.00
2019-05-13T10:31:07.796Z,10.90
2019-05-13T10:33:37.698Z,11.00
2019-05-13T10:36:07.609Z,11.10
2019-05-13T10:38:37.378Z,11.00
2019-05-13T10:41:07.047Z,10.90
2019-05-13T10:43:41.459Z,10.80
2019-05-13T10:46:08.063Z,10.80
2019-05-13T10:48:37.770Z,10.70
2019-05-13T10:51:07.400Z,10.70
2019-05-13T10:53:37.062Z,10.70
2019-05-13T10:56:06.905Z,10.80
2019-05-13T10:58:36.496Z,10.90
2019-05-13T11:01:06.469Z,11.00
2019-05-13T11:03:36.058Z,10.90
2019-05-13T11:06:05.901Z,10.90
2019-05-13T11:08:35.549Z,10.90
2019-05-13T11:11:05.230Z,11.10
2019-05-13T11:13:50.520Z,11.10
2019-05-13T11:16:06.531Z,11.30
2019-05-13T11:18:36.162Z,11.40
2019-05-13T11:21:05.824Z,11.40
2019-05-13T11:23:35.458Z,11.30
2019-05-13T11:26:05.126Z,11.30
2019-05-13T11:28:34.808Z,11.20
2019-05-13T11:31:04.506Z,11.10
2019-05-13T11:33:34.059Z,11.00
2019-05-13T11:36:03.797Z,11.10
2019-05-13T11:38:33.377Z,11.30
2019-05-13T11:41:03.564Z,11.40
2019-05-13T11:43:33.853Z,11.50
2019-05-13T11:46:04.063Z,11.60
2019-05-13T11:48:33.709Z,11.70
2019-05-13T11:51:04.312Z,11.70
2019-05-13T11:53:37.405Z,11.80
2019-05-13T11:56:05.649Z,11.80
2019-05-13T11:58:35.282Z,11.70
2019-05-13T12:01:06.243Z,11.70
2019-05-13T12:03:35.810Z,11.80
2019-05-13T12:06:05.950Z,11.90
2019-05-13T12:08:35.571Z,11.90
2019-05-13T12:11:05.721Z,12.00
2019-05-13T12:13:36.319Z,12.10
2019-05-13T12:16:06.018Z,12.10
2019-05-13T12:18:43.171Z,12.20
2019-05-13T12:21:07.030Z,12.30
2019-05-13T12:23:36.628Z,12.40
2019-05-13T12:26:06.290Z,12.40
2019-05-13T12:28:35.968Z,12.50
2019-05-13T12:31:05.662Z,12.40
2019-05-13T12:33:35.293Z,12.30
2019-05-13T12:36:04.954Z,12.30
2019-05-13T12:38:34.588Z,12.30
2019-05-13T12:41:05.468Z,12.40
2019-05-13T12:43:35.219Z,12.40
2019-05-13T12:46:05.220Z,12.40
2019-05-13T12:48:34.825Z,12.40
2019-05-13T12:51:04.458Z,12.40
2019-05-13T12:53:34.197Z,12.40
2019-05-13T12:56:04.122Z,12.30
2019-05-13T12:58:34.449Z,12.30
2019-05-13T13:01:04.131Z,12.30
2019-05-13T13:03:33.806Z,12.40
2019-05-13T13:08:43.488Z,12.50
2019-05-13T13:11:06.421Z,12.50
2019-05-13T13:13:57.420Z,12.50
2019-05-13T13:16:07.659Z,12.60
2019-05-13T13:18:37.653Z,12.80
2019-05-13T13:21:08.444Z,12.90
2019-05-13T13:23:38.335Z,13.10
2019-05-13T13:28:43.061Z,13.20
2019-05-13T13:31:12.932Z,13.20
2019-05-13T13:33:44.446Z,13.20
2019-05-13T13:36:15.640Z,13.20
2019-05-13T13:38:45.363Z,13.20
2019-05-13T13:41:22.475Z,13.10
2019-05-13T13:43:47.194Z,13.10
2019-05-13T13:46:36.992Z,13.10
2019-05-13T13:48:48.159Z,13.00
2019-05-13T13:51:17.766Z,12.90
2019-05-13T13:53:47.411Z,12.90
2019-05-13T13:56:17.006Z,12.90
2019-05-13T13:58:46.609Z,12.90
2019-05-13T14:01:19.954Z,12.90
2019-05-13T14:03:47.548Z,12.90
2019-05-13T14:06:55.936Z,13.10
2019-05-13T14:07:09.443Z,12.50
2019-05-13T14:07:16.580Z,12.90
2019-05-13T14:08:48.598Z,12.90
2019-05-13T14:11:18.303Z,12.80
2019-05-13T14:13:47.972Z,12.70
2019-05-13T14:16:28.486Z,12.60
2019-05-13T14:18:48.944Z,12.50
2019-05-13T14:21:18.567Z,12.40
2019-05-13T14:23:48.164Z,12.20
2019-05-13T14:26:17.796Z,12.20
2019-05-13T14:28:47.529Z,12.20
2019-05-13T14:31:17.128Z,12.10
2019-05-13T14:33:46.753Z,12.10
2019-05-13T14:36:16.524Z,12.20
2019-05-13T14:38:46.145Z,12.30
2019-05-13T14:41:15.741Z,12.30
2019-05-13T14:43:45.355Z,12.30
2019-05-13T14:46:14.952Z,12.40
2019-05-13T14:48:44.572Z,12.40
2019-05-13T14:51:14.343Z,12.30
2019-05-13T14:53:43.979Z,12.20
2019-05-13T14:56:14.471Z,12.20
2019-05-13T14:58:44.268Z,12.20
2019-05-13T15:01:21.781Z,12.10
2019-05-13T15:03:45.368Z,12.10
2019-05-13T15:06:14.967Z,12.10
2019-05-13T15:08:44.593Z,12.20
2019-05-13T15:11:14.254Z,12.20
2019-05-13T15:13:43.876Z,12.20
2019-05-13T15:16:13.468Z,12.20
2019-05-13T15:18:43.265Z,12.20
2019-05-13T15:21:12.895Z,12.30
2019-05-13T15:23:42.522Z,12.30
2019-05-13T15:26:12.121Z,12.30
2019-05-13T15:28:42.305Z,12.30
2019-05-13T15:31:12.163Z,12.10
2019-05-13T15:33:41.878Z,12.00
2019-05-13T15:36:11.909Z,12.00
2019-05-13T15:38:41.863Z,12.00
2019-05-13T15:41:15.316Z,12.00
2019-05-13T15:43:42.821Z,12.10
2019-05-13T15:46:12.741Z,12.00
2019-05-13T15:48:42.405Z,11.90
2019-05-13T15:51:12.206Z,11.90
2019-05-13T15:53:43.759Z,11.90
2019-05-13T15:56:13.224Z,11.90
2019-05-13T15:58:44.546Z,12.00
2019-05-13T16:01:14.182Z,12.00
2019-05-13T16:03:43.777Z,11.90
2019-05-13T16:06:13.407Z,11.90
2019-05-13T16:08:43.419Z,11.90
2019-05-13T16:11:13.083Z,11.90
2019-05-13T16:13:42.984Z,11.90
2019-05-13T16:16:12.608Z,11.90
2019-05-13T16:18:42.239Z,12.00
2019-05-13T16:21:12.185Z,12.00
2019-05-13T16:23:42.810Z,12.00
2019-05-13T16:26:12.601Z,12.00
2019-05-13T16:28:42.400Z,12.00
2019-05-13T16:31:12.154Z,12.00
2019-05-13T16:33:41.945Z,12.00
2019-05-13T16:36:12.738Z,12.10
2019-05-13T16:38:42.652Z,12.10
2019-05-13T16:41:12.649Z,12.10
2019-05-13T16:43:42.834Z,12.10
2019-05-13T16:46:12.559Z,12.00
2019-05-13T16:48:42.258Z,12.00
2019-05-13T16:51:12.774Z,11.80
2019-05-13T16:53:42.601Z,11.80
2019-05-13T16:56:25.785Z,11.70
2019-05-13T16:58:43.710Z,11.60
2019-05-13T17:01:13.306Z,11.60
2019-05-13T17:03:42.972Z,11.50
2019-05-13T17:06:12.897Z,11.50
2019-05-13T17:08:42.734Z,11.50
2019-05-13T17:11:12.488Z,11.60
2019-05-13T17:13:42.754Z,11.50
2019-05-13T17:16:13.150Z,11.50
2019-05-13T17:18:42.738Z,11.50
2019-05-13T17:21:12.427Z,11.40
2019-05-13T17:23:42.076Z,11.30
2019-05-13T17:26:11.835Z,11.40
2019-05-13T17:28:41.945Z,11.30
2019-05-13T17:31:11.813Z,11.30
2019-05-13T17:33:41.439Z,11.10
2019-05-13T17:36:12.343Z,11.00
2019-05-13T17:38:42.558Z,10.90
2019-05-13T17:41:12.383Z,10.90
2019-05-13T17:43:42.051Z,11.00
2019-05-13T17:46:11.647Z,10.90
2019-05-13T17:48:41.669Z,11.00
2019-05-13T17:51:13.128Z,10.90
2019-05-13T17:53:42.683Z,10.80
2019-05-13T17:56:12.303Z,10.90
2019-05-13T17:58:42.126Z,10.90
2019-05-13T18:01:12.142Z,11.00
2019-05-13T18:03:41.778Z,11.00
2019-05-13T18:06:11.607Z,11.00
2019-05-13T18:08:41.355Z,11.00
2019-05-13T18:11:11.496Z,10.90
2019-05-13T18:13:43.611Z,10.70
2019-05-13T18:16:12.718Z,10.70
2019-05-13T18:18:46.987Z,10.60
2019-05-13T18:21:13.775Z,10.50
2019-05-13T18:23:43.361Z,10.50
2019-05-13T18:26:16.102Z,10.50
2019-05-13T18:28:44.299Z,10.50
2019-05-13T18:31:13.927Z,10.50
2019-05-13T18:33:43.523Z,10.50
2019-05-13T18:36:13.156Z,10.60
2019-05-13T18:38:42.764Z,10.60
2019-05-13T18:41:12.397Z,10.60
2019-05-13T18:43:41.995Z,10.70
2019-05-13T18:46:12.353Z,10.80
2019-05-13T18:48:57.699Z,10.70
2019-05-13T18:51:13.523Z,10.70
2019-05-13T18:53:43.147Z,10.60
2019-05-13T18:56:12.744Z,10.70
2019-05-13T18:58:42.375Z,10.70
2019-05-13T19:01:12.047Z,10.70
2019-05-13T19:03:41.664Z,10.70
2019-05-13T19:06:11.742Z,10.60
2019-05-13T19:08:41.582Z,10.60
2019-05-13T19:11:12.005Z,10.50
2019-05-13T19:13:41.886Z,10.50
2019-05-13T19:16:11.884Z,10.40
2019-05-13T19:18:42.310Z,10.60
2019-05-13T19:21:12.073Z,10.50
2019-05-13T19:23:41.987Z,10.50
2019-05-13T19:26:11.576Z,10.50
2019-05-13T19:28:41.209Z,10.50
2019-05-13T19:31:11.569Z,10.40
2019-05-13T19:33:41.615Z,10.50
2019-05-13T19:36:11.778Z,10.50
2019-05-13T19:38:42.290Z,10.40
2019-05-13T19:41:11.963Z,10.40
2019-05-13T19:43:42.109Z,10.40
2019-05-13T19:46:11.766Z,10.30
2019-05-13T19:48:41.817Z,10.20
2019-05-13T19:51:11.456Z,10.30
2019-05-13T19:53:43.102Z,10.30
2019-05-13T19:56:12.395Z,10.20
2019-05-13T19:58:41.988Z,10.10
2019-05-13T20:01:11.866Z,10.20
2019-05-13T20:03:42.257Z,10.30
2019-05-13T20:06:12.327Z,10.20
2019-05-13T20:08:42.069Z,10.20
2019-05-13T20:11:11.776Z,10.20
2019-05-13T20:13:41.910Z,10.20
2019-05-13T20:16:11.904Z,10.20
2019-05-13T20:18:41.663Z,10.20
2019-05-13T20:21:13.519Z,10.10
2019-05-13T20:23:42.685Z,10.20
2019-05-13T20:26:12.316Z,10.20
2019-05-13T20:28:42.111Z,10.10
2019-05-13T20:31:11.747Z,10.20
2019-05-13T20:33:42.962Z,10.20
2019-05-13T20:36:12.745Z,10.10
2019-05-13T20:38:42.371Z,10.00
2019-05-13T20:41:11.962Z,9.90
2019-05-13T20:43:42.534Z,9.80
2019-05-13T20:46:12.438Z,9.90
2019-05-13T20:48:42.034Z,9.90
2019-05-13T20:51:11.654Z,9.90
2019-05-13T20:53:41.383Z,9.90
2019-05-13T20:56:11.050Z,9.90
2019-05-13T20:58:42.144Z,9.80
2019-05-13T21:01:11.854Z,9.80
2019-05-13T21:03:41.984Z,9.90
2019-05-13T21:06:11.887Z,9.90
2019-05-13T21:08:41.629Z,10.00
2019-05-13T21:11:11.569Z,10.00
2019-05-13T21:13:41.365Z,10.00
2019-05-13T21:16:11.546Z,10.00
2019-05-13T21:18:42.001Z,10.00
2019-05-13T21:21:12.005Z,10.10
2019-05-13T21:23:41.880Z,10.10
2019-05-13T21:26:14.941Z,10.10
2019-05-13T21:28:42.853Z,10.00
2019-05-13T21:31:12.480Z,10.00
2019-05-13T21:33:42.093Z,9.80
2019-05-13T21:36:12.361Z,9.70
2019-05-13T21:38:42.203Z,9.70
2019-05-13T21:41:11.921Z,9.70
2019-05-13T21:43:41.558Z,9.70
2019-05-13T21:46:12.028Z,9.80
2019-05-13T21:48:41.855Z,9.80
2019-05-13T21:51:13.533Z,9.80
2019-05-13T21:53:42.789Z,9.70
2019-05-13T21:56:12.404Z,9.80
2019-05-13T21:58:42.024Z,9.70
2019-05-13T22:01:11.712Z,9.60
2019-05-13T22:03:42.032Z,9.60
2019-05-13T22:06:11.861Z,9.60
2019-05-13T22:08:41.516Z,9.60
2019-05-13T22:11:12.019Z,9.60
2019-05-13T22:13:42.054Z,9.70
2019-05-13T22:16:11.693Z,9.70
2019-05-13T22:18:41.739Z,9.60
2019-05-13T22:21:11.938Z,9.60
2019-05-13T22:23:41.641Z,9.70
2019-05-13T22:26:11.760Z,9.70
2019-05-13T22:28:41.838Z,9.70
2019-05-13T22:31:11.736Z,9.70
2019-05-13T22:33:41.421Z,9.70
2019-05-13T22:36:11.842Z,9.70
2019-05-13T22:38:42.693Z,9.70
2019-05-13T22:41:12.437Z,9.70
2019-05-13T22:43:54.636Z,9.60
2019-05-13T22:46:14.187Z,9.60
2019-05-13T22:48:43.911Z,9.60
2019-05-13T22:51:13.506Z,9.60
2019-05-13T22:53:43.134Z,9.60
2019-05-13T22:56:12.749Z,9.60
2019-05-13T22:58:42.372Z,9.60
2019-05-13T23:01:12.021Z,9.60
2019-05-13T23:03:41.745Z,9.60
2019-05-13T23:06:12.126Z,9.60
2019-05-13T23:08:41.893Z,9.50
2019-05-13T23:11:11.478Z,9.60
2019-05-13T23:13:42.140Z,9.50
2019-05-13T23:16:11.975Z,9.50
2019-05-13T23:18:42.182Z,9.60
2019-05-13T23:21:11.937Z,9.60
2019-05-13T23:23:41.830Z,9.70
2019-05-13T23:26:11.998Z,9.50
2019-05-13T23:28:41.747Z,9.60
2019-05-13T23:31:12.334Z,9.70
2019-05-13T23:33:42.070Z,9.80
2019-05-13T23:36:12.114Z,9.70
2019-05-13T23:38:41.855Z,9.70
2019-05-13T23:41:11.717Z,9.50
2019-05-13T23:43:41.420Z,9.40
2019-05-13T23:46:11.769Z,9.40
2019-05-13T23:48:42.433Z,9.50
2019-05-13T23:51:12.940Z,9.50
2019-05-13T23:53:42.725Z,9.50
2019-05-13T23:56:12.354Z,9.50
2019-05-13T23:58:41.941Z,9.50
